Time;durP1;ratioP1;P1;durP2;ratioP2;P2;SDS_P1;SDS_P2;PMS_P1;PMS_P2;Temp;Humidity;BMP_temperature;BMP_pressure;BME280_temperature;BME280_humidity;BME280_pressure;Samples;Min_cycle;Max_cycle;Signal;HPM_P1;HPM_P2
2022/11/21 00:00:58;;;;;;;6.40;3.30;;;;;;;17.02;29.43;102038.13;4993757;28;20065;-54
2022/11/21 00:03:25;;;;;;;7.00;3.42;;;;;;;17.07;29.21;102032.88;4992956;28;20118;-49
2022/11/21 00:05:51;;;;;;;5.47;3.53;;;;;;;17.01;29.54;102046.47;4993748;28;20022;-48
2022/11/21 00:08:19;;;;;;;9.20;3.75;;;;;;;17.07;29.39;102051.00;4988965;28;20049;-47
2022/11/21 00:10:46;;;;;;;11.55;3.88;;;;;;;17.03;29.77;102038.94;4974223;28;20163;-48
2022/11/21 00:13:15;;;;;;;12.73;4.10;;;;;;;17.22;29.35;102042.56;4980928;28;20379;-48
2022/11/21 00:15:42;;;;;;;27.55;6.22;;;;;;;17.18;29.76;102035.94;4993779;28;20105;-49
2022/11/21 00:18:11;;;;;;;17.95;4.88;;;;;;;17.27;29.39;102040.03;4991736;28;20022;-48
2022/11/21 00:20:38;;;;;;;31.27;4.90;;;;;;;17.19;29.62;102037.56;5034084;23;20439;-45
2022/11/21 00:23:05;;;;;;;10.02;4.30;;;;;;;17.03;29.09;102030.81;5068416;28;20545;-51
2022/11/21 00:25:31;;;;;;;9.63;4.10;;;;;;;16.95;30.07;102031.13;5072940;28;20025;-48
2022/11/21 00:27:58;;;;;;;8.43;4.32;;;;;;;16.85;30.06;102042.41;5068754;28;20134;-46
2022/11/21 00:30:24;;;;;;;11.75;4.53;;;;;;;16.89;29.17;102040.94;5052641;28;20509;-48
2022/11/21 00:32:50;;;;;;;9.80;4.35;;;;;;;16.72;29.81;102037.09;5052840;28;20016;-50
2022/11/21 00:35:16;;;;;;;11.55;4.53;;;;;;;16.72;30.05;102031.69;5050449;28;20045;-47
2022/11/21 00:37:43;;;;;;;33.90;6.75;;;;;;;16.66;30.00;102029.78;5052679;28;20098;-46
2022/11/21 00:40:09;;;;;;;81.10;14.07;;;;;;;16.78;30.00;102047.88;5051547;28;20028;-47
2022/11/21 00:42:36;;;;;;;9.07;4.10;;;;;;;16.64;29.55;102044.38;5051961;28;20414;-45
2022/11/21 00:45:03;;;;;;;486.23;70.47;;;;;;;16.56;30.73;102047.34;5051799;28;20048;-48
2022/11/21 00:47:29;;;;;;;313.23;50.42;;;;;;;16.40;30.91;102042.44;5054563;28;20469;-50
2022/11/21 00:49:55;;;;;;;60.55;8.80;;;;;;;16.33;30.38;102050.56;5071714;28;20043;-50
2022/11/21 00:52:21;;;;;;;32.50;6.65;;;;;;;16.34;31.26;102051.41;5061465;28;20094;-48
2022/11/21 00:54:47;;;;;;;27.73;7.00;;;;;;;16.19;32.17;102053.53;5051522;28;20021;-50
2022/11/21 00:57:13;;;;;;;11.10;4.95;;;;;;;16.08;32.68;102053.16;5054547;28;20083;-50
2022/11/21 00:59:40;;;;;;;24.80;8.57;;;;;;;16.03;32.52;102050.25;5071758;28;20025;-50
2022/11/21 01:02:06;;;;;;;25.75;18.10;;;;;;;16.05;31.62;102044.66;5068305;28;20032;-46
2022/11/21 01:04:34;;;;;;;20.83;16.02;;;;;;;15.92;32.58;102042.81;5051717;28;20035;-45
2022/11/21 01:07:00;;;;;;;18.23;13.32;;;;;;;15.73;32.19;102043.69;5054420;28;20074;-45
2022/11/21 01:09:27;;;;;;;8.13;5.50;;;;;;;15.47;31.08;102039.97;5050257;28;20374;-47
2022/11/21 01:11:54;;;;;;;9.93;3.92;;;;;;;15.48;31.29;102038.09;5051389;28;20024;-48
2022/11/21 01:14:20;;;;;;;7.20;4.20;;;;;;;15.24;31.92;102044.97;5051015;28;20032;-44
2022/11/21 01:16:46;;;;;;;9.50;4.38;;;;;;;15.15;31.68;102038.09;5051681;28;20047;-48
2022/11/21 01:19:13;;;;;;;6.35;4.07;;;;;;;14.91;31.71;102026.06;5051343;28;20031;-48
2022/11/21 01:21:39;;;;;;;6.80;4.32;;;;;;;15.04;31.62;102034.97;5054358;28;20045;-46
2022/11/21 01:24:05;;;;;;;9.88;4.72;;;;;;;15.05;31.94;102036.66;5060812;28;20388;-45
2022/11/21 01:26:36;;;;;;;13.02;4.75;;;;;;;14.88;32.19;102038.09;5060437;28;20367;-48
2022/11/21 01:29:03;;;;;;;6.80;4.45;;;;;;;14.98;32.41;102038.50;5050520;28;20032;-47
2022/11/21 01:31:30;;;;;;;7.55;4.10;;;;;;;14.66;32.68;102037.44;5051145;28;20481;-47
2022/11/21 01:33:57;;;;;;;7.57;3.85;;;;;;;14.51;33.03;102042.16;5049620;28;20064;-48
2022/11/21 01:36:29;;;;;;;7.00;4.32;;;;;;;14.58;33.88;102034.91;5052147;28;20057;-45
2022/11/21 01:38:58;;;;;;;8.52;3.63;;;;;;;14.27;34.23;102040.81;5054587;28;20356;-49
2022/11/21 01:41:30;;;;;;;6.50;3.83;;;;;;;14.37;35.16;102043.09;5050861;28;20032;-47
2022/11/21 01:43:57;;;;;;;6.43;3.88;;;;;;;14.15;35.37;102034.31;5065689;28;20040;-45
2022/11/21 01:46:24;;;;;;;7.90;4.00;;;;;;;14.15;34.90;102040.53;5053147;28;20033;-47
2022/11/21 01:49:13;;;;;;;7.70;3.47;;;;;;;14.07;34.70;102042.56;5054323;28;20048;-47
2022/11/21 01:51:49;;;;;;;6.40;4.00;;;;;;;14.08;34.53;102028.06;5054558;28;20074;-46
2022/11/21 01:54:24;;;;;;;5.38;3.88;;;;;;;13.69;35.42;102041.09;5063188;28;20032;-46
2022/11/21 01:56:59;;;;;;;10.07;4.22;;;;;;;13.68;35.98;102042.13;5075355;28;20032;-45
2022/11/21 01:59:55;;;;;;;7.03;3.67;;;;;;;13.59;35.97;102045.16;5075115;28;20068;-45
2022/11/21 02:02:26;;;;;;;5.95;4.32;;;;;;;13.66;35.29;102046.06;5070147;28;20037;-47
2022/11/21 02:04:54;;;;;;;5.00;3.25;;;;;;;13.60;35.17;102052.22;5060003;28;20035;-46
2022/11/21 02:07:23;;;;;;;7.85;3.80;;;;;;;13.48;35.50;102051.91;5073934;28;20028;-45
2022/11/21 02:09:55;;;;;;;6.57;4.10;;;;;;;13.47;36.17;102061.84;5065887;28;20025;-44
2022/11/21 02:12:32;;;;;;;6.38;3.85;;;;;;;13.51;36.55;102065.00;5065207;28;20231;-45
2022/11/21 02:14:59;;;;;;;5.95;4.25;;;;;;;13.39;36.96;102062.00;5054369;28;20029;-44
2022/11/21 02:17:28;;;;;;;7.22;4.15;;;;;;;13.20;36.75;102059.94;5053968;28;20504;-43
2022/11/21 02:19:55;;;;;;;5.68;4.40;;;;;;;13.42;36.43;102069.66;5071247;28;20033;-44
2022/11/21 02:22:52;;;;;;;6.90;3.88;;;;;;;13.03;36.93;102064.75;5074495;28;20055;-44
2022/11/21 02:25:25;;;;;;;8.85;3.83;;;;;;;13.00;38.09;102064.31;5070465;28;20113;-45
2022/11/21 02:27:59;;;;;;;8.05;4.13;;;;;;;12.69;38.50;102065.44;5060067;28;20171;-44
2022/11/21 02:30:29;;;;;;;7.38;3.90;;;;;;;12.87;38.33;102062.31;5073432;28;20040;-43
2022/11/21 02:32:55;;;;;;;6.32;4.43;;;;;;;12.95;38.28;102060.34;5051421;28;20061;-44
2022/11/21 02:35:22;;;;;;;6.35;3.70;;;;;;;12.77;38.88;102067.16;5055400;28;20037;-44
2022/11/21 02:38:01;;;;;;;6.40;4.32;;;;;;;12.65;39.43;102067.66;5069365;28;20071;-47
2022/11/21 02:40:33;;;;;;;7.35;4.13;;;;;;;12.36;40.04;102073.94;5053758;28;20021;-46
2022/11/21 02:43:23;;;;;;;6.55;4.00;;;;;;;12.42;40.12;102070.50;5055473;28;20020;-47
2022/11/21 02:45:49;;;;;;;6.45;4.20;;;;;;;12.37;40.39;102074.75;5053670;28;20036;-47
2022/11/21 02:48:16;;;;;;;5.63;4.03;;;;;;;12.42;40.43;102069.66;5056653;28;20033;-44
2022/11/21 02:50:44;;;;;;;6.32;4.05;;;;;;;12.33;40.57;102071.66;5072662;28;20025;-47
2022/11/21 02:53:14;;;;;;;5.65;3.92;;;;;;;12.08;41.33;102072.94;5055912;28;20032;-44
2022/11/21 02:55:40;;;;;;;8.57;4.00;;;;;;;12.09;41.55;102069.25;5067044;28;20550;-44
2022/11/21 02:58:07;;;;;;;6.90;4.30;;;;;;;11.84;41.95;102072.22;5065845;28;20029;-43
2022/11/21 03:00:35;;;;;;;7.18;4.32;;;;;;;11.87;42.23;102071.81;5063754;28;20098;-46
2022/11/21 03:03:01;;;;;;;6.25;4.05;;;;;;;11.94;41.95;102066.59;5073041;28;20074;-47
2022/11/21 03:05:28;;;;;;;6.68;3.90;;;;;;;11.87;42.11;102065.63;5070005;28;20416;-45
2022/11/21 03:07:54;;;;;;;6.05;4.05;;;;;;;11.83;42.21;102064.34;5053688;28;20182;-47
2022/11/21 03:10:20;;;;;;;6.35;3.88;;;;;;;11.61;42.78;102063.38;5064724;28;20033;-46
2022/11/21 03:12:46;;;;;;;5.53;4.25;;;;;;;11.76;42.65;102061.53;5053865;28;20032;-46
2022/11/21 03:15:14;;;;;;;6.32;3.85;;;;;;;11.65;43.02;102059.28;5063741;28;20103;-43
2022/11/21 03:17:42;;;;;;;5.05;4.10;;;;;;;11.56;43.13;102063.09;5058294;28;20118;-47
2022/11/21 03:20:08;;;;;;;7.25;4.10;;;;;;;11.31;43.27;102075.88;5052938;28;20570;-46
2022/11/21 03:22:35;;;;;;;7.15;4.30;;;;;;;11.26;43.76;102073.72;5056119;28;20470;-44
2022/11/21 03:25:01;;;;;;;8.55;4.20;;;;;;;11.10;44.48;102074.72;5054193;28;20108;-46
2022/11/21 03:27:27;;;;;;;6.70;4.60;;;;;;;11.28;44.31;102071.72;5065822;28;20103;-45
2022/11/21 03:29:53;;;;;;;6.47;4.18;;;;;;;11.24;44.38;102056.16;5054118;28;20028;-43
2022/11/21 03:32:20;;;;;;;6.57;4.78;;;;;;;10.94;44.89;102071.28;5052847;28;20048;-44
2022/11/21 03:34:46;;;;;;;6.28;4.25;;;;;;;10.94;44.70;102069.47;5065070;28;20037;-43
2022/11/21 03:37:12;;;;;;;5.70;3.97;;;;;;;11.01;44.51;102065.06;5071941;28;20146;-44
2022/11/21 03:39:38;;;;;;;7.20;4.70;;;;;;;11.12;44.30;102082.56;5067896;28;20043;-45
2022/11/21 03:42:04;;;;;;;6.50;4.22;;;;;;;10.97;44.75;102073.63;5071300;28;20029;-44
2022/11/21 03:44:30;;;;;;;6.50;4.53;;;;;;;11.12;44.48;102071.84;5065733;28;20060;-44
2022/11/21 03:46:57;;;;;;;6.80;4.15;;;;;;;10.84;45.35;102085.78;5052596;28;20378;-44
2022/11/21 03:49:23;;;;;;;8.77;4.63;;;;;;;11.03;44.84;102083.63;5057799;28;20544;-47
2022/11/21 03:51:49;;;;;;;5.78;4.15;;;;;;;10.72;45.47;102087.19;5076543;22;20102;-44
2022/11/21 03:54:15;;;;;;;7.85;4.80;;;;;;;10.62;46.37;102086.56;5060200;28;20029;-45
2022/11/21 03:56:41;;;;;;;6.38;4.50;;;;;;;10.82;45.39;102087.78;5071199;28;20043;-43
2022/11/21 03:59:07;;;;;;;6.35;4.25;;;;;;;10.69;45.76;102087.53;5071216;28;20738;-47
2022/11/21 04:01:34;;;;;;;5.75;4.43;;;;;;;10.44;46.25;102088.69;5071180;28;20029;-46
2022/11/21 04:04:00;;;;;;;7.63;4.88;;;;;;;10.41;46.09;102095.19;5070681;28;20146;-45
2022/11/21 04:06:26;;;;;;;8.13;4.68;;;;;;;10.31;46.67;102083.88;5071570;28;20457;-44
2022/11/21 04:08:52;;;;;;;6.03;4.45;;;;;;;10.34;46.21;102096.09;5071100;28;20025;-44
2022/11/21 04:11:20;;;;;;;6.53;4.10;;;;;;;10.08;46.44;102094.47;5070041;28;20063;-43
2022/11/21 04:13:47;;;;;;;7.50;4.88;;;;;;;9.88;46.69;102093.16;5070310;28;20028;-43
2022/11/21 04:16:13;;;;;;;7.88;4.40;;;;;;;10.17;46.19;102095.28;5071467;28;20025;-46
2022/11/21 04:18:39;;;;;;;8.32;4.25;;;;;;;10.05;46.15;102097.50;5071771;28;20028;-44
2022/11/21 04:21:07;;;;;;;7.55;4.82;;;;;;;10.15;45.64;102103.47;5071176;28;20110;-44
2022/11/21 04:23:33;;;;;;;5.72;4.20;;;;;;;10.29;44.81;102118.00;5070809;28;20028;-47
2022/11/21 04:26:00;;;;;;;7.40;3.88;;;;;;;10.28;44.69;102116.34;5071108;28;20089;-47
2022/11/21 04:28:26;;;;;;;7.53;4.50;;;;;;;10.27;44.75;102126.22;5070302;28;20445;-43
2022/11/21 04:30:53;;;;;;;6.22;4.53;;;;;;;10.32;44.78;102125.69;5071181;28;20107;-46
2022/11/21 04:33:19;;;;;;;8.15;4.35;;;;;;;10.31;44.96;102127.53;5069957;28;20020;-46
2022/11/21 04:35:46;;;;;;;6.72;4.45;;;;;;;10.30;44.71;102133.06;5071103;28;20104;-44
2022/11/21 04:38:13;;;;;;;6.40;4.38;;;;;;;10.37;44.67;102128.66;5071135;28;20265;-43
2022/11/21 04:40:41;;;;;;;7.43;4.55;;;;;;;10.37;44.39;102131.34;5062588;28;20031;-45
2022/11/21 04:43:08;;;;;;;7.35;4.70;;;;;;;10.23;45.13;102127.56;5067950;28;20408;-43
2022/11/21 04:45:34;;;;;;;8.98;4.60;;;;;;;10.22;45.65;102133.91;5051332;28;20039;-44
2022/11/21 04:48:00;;;;;;;8.13;4.78;;;;;;;9.98;46.73;102141.97;5051961;28;20021;-44
2022/11/21 04:50:26;;;;;;;7.72;4.90;;;;;;;9.78;47.74;102147.69;5041445;28;20057;-44
2022/11/21 04:52:55;;;;;;;7.78;5.32;;;;;;;9.83;48.44;102146.31;5047855;28;20037;-43
2022/11/21 04:55:23;;;;;;;7.72;5.05;;;;;;;9.75;48.66;102142.66;5048840;28;20595;-44
2022/11/21 04:57:50;;;;;;;5.72;4.60;;;;;;;9.73;48.98;102141.19;5043790;28;20044;-43
2022/11/21 05:00:17;;;;;;;7.65;5.45;;;;;;;9.60;49.50;102144.34;5050470;28;20118;-44
2022/11/21 05:02:43;;;;;;;8.07;5.32;;;;;;;9.46;50.10;102132.50;5036103;28;20382;-43
2022/11/21 05:05:10;;;;;;;7.20;4.88;;;;;;;9.53;50.08;102143.34;5047552;28;20300;-45
2022/11/21 05:07:37;;;;;;;7.20;5.70;;;;;;;9.43;50.29;102137.31;5049882;28;20033;-45
2022/11/21 05:10:04;;;;;;;8.30;5.85;;;;;;;9.24;50.45;102136.66;5050531;28;20033;-43
2022/11/21 05:15:15;;;;;;;7.40;5.30;;;;;;;9.25;50.20;102134.81;5050668;28;20134;-44
2022/11/21 05:17:41;;;;;;;8.75;5.22;;;;;;;9.08;50.67;102133.13;5051534;28;20493;-44
2022/11/21 05:20:08;;;;;;;7.30;4.85;;;;;;;9.11;50.59;102130.16;5050771;28;20082;-45
2022/11/21 05:22:34;;;;;;;8.48;4.88;;;;;;;8.89;51.12;102134.28;5049454;28;20112;-44
2022/11/21 05:25:01;;;;;;;6.63;4.72;;;;;;;8.95;51.22;102139.78;5050493;28;20074;-44
2022/11/21 05:27:27;;;;;;;7.28;4.80;;;;;;;9.00;51.15;102133.97;5042118;28;20032;-44
2022/11/21 05:29:54;;;;;;;7.43;4.95;;;;;;;8.76;52.44;102134.72;5050707;28;20024;-45
2022/11/21 05:32:20;;;;;;;8.55;5.55;;;;;;;8.53;53.29;102131.81;5050043;28;20025;-45
2022/11/21 05:34:46;;;;;;;10.85;5.00;;;;;;;8.60;53.25;102134.66;5047865;28;20033;-47
2022/11/21 05:37:12;;;;;;;9.77;5.40;;;;;;;8.49;53.48;102130.44;5041139;28;20563;-44
2022/11/21 05:39:39;;;;;;;4.80;4.20;;;;;;;8.35;53.81;102137.19;5042887;28;20120;-45
2022/11/21 05:42:05;;;;;;;8.93;5.00;;;;;;;8.29;54.03;102129.84;5031022;28;20087;-46
2022/11/21 05:44:31;;;;;;;7.55;5.75;;;;;;;8.33;53.98;102141.88;5050168;28;20029;-45
2022/11/21 05:46:57;;;;;;;7.22;5.15;;;;;;;8.20;54.19;102139.63;5051038;28;20033;-45
2022/11/21 05:49:23;;;;;;;7.05;4.93;;;;;;;8.05;54.40;102137.69;5039870;28;20095;-46
2022/11/21 05:51:50;;;;;;;7.03;4.20;;;;;;;8.00;54.60;102146.19;5045278;28;20053;-46
2022/11/21 05:54:16;;;;;;;6.30;4.47;;;;;;;7.99;54.02;102147.16;5049346;28;20037;-44
2022/11/21 05:56:42;;;;;;;5.68;4.13;;;;;;;8.00;53.40;102146.19;5038302;28;20239;-43
2022/11/21 05:59:10;;;;;;;5.28;4.38;;;;;;;8.14;51.95;102150.91;5039404;28;20029;-45
2022/11/21 06:04:22;;;;;;;9.93;4.70;;;;;;;8.08;52.24;102151.56;5050008;28;20074;-43
2022/11/21 06:06:48;;;;;;;9.15;4.38;;;;;;;8.19;51.95;102150.47;5051247;28;20049;-44
2022/11/21 06:09:14;;;;;;;8.35;4.80;;;;;;;8.35;51.18;102160.38;5050432;28;20032;-44
2022/11/21 06:11:40;;;;;;;4.88;4.05;;;;;;;8.45;51.11;102156.63;5038496;28;20022;-43
2022/11/21 06:14:06;;;;;;;7.90;4.30;;;;;;;8.45;51.73;102147.78;5046311;28;20370;-43
2022/11/21 06:16:32;;;;;;;7.38;4.72;;;;;;;8.27;52.68;102155.81;5050031;28;20063;-44
2022/11/21 06:18:59;;;;;;;5.20;4.20;;;;;;;8.37;52.60;102155.75;5059598;22;20040;-44
2022/11/21 06:21:27;;;;;;;9.35;6.32;;;;;;;8.33;53.21;102160.56;5058500;28;20029;-44
2022/11/21 06:23:56;;;;;;;7.75;5.95;;;;;;;8.12;53.89;102157.44;5047741;28;20092;-44
2022/11/21 06:26:24;;;;;;;8.55;5.63;;;;;;;8.15;54.33;102168.59;5069383;28;20020;-45
2022/11/21 06:28:51;;;;;;;6.47;5.18;;;;;;;8.04;54.66;102170.69;5056737;28;20029;-44
2022/11/21 06:31:26;;;;;;;7.60;5.57;;;;;;;7.88;55.09;102171.41;5069299;28;20025;-44
2022/11/21 06:33:56;;;;;;;;;;;;;;;7.93;55.06;102177.13;5056014;28;20028;-44
2022/11/21 06:36:23;;;;;;;5.78;4.50;;;;;;;7.56;56.12;102170.19;5072657;28;20360;-44
2022/11/21 06:38:52;;;;;;;5.95;4.60;;;;;;;7.57;55.97;102169.19;5057427;28;20108;-45
2022/11/21 06:41:24;;;;;;;6.18;4.55;;;;;;;7.45;55.96;102162.44;5063132;28;20028;-43
2022/11/21 06:43:50;;;;;;;6.15;4.45;;;;;;;7.48;56.12;102161.28;5059169;28;20473;-45
2022/11/21 06:46:16;;;;;;;5.03;4.50;;;;;;;7.46;56.45;102161.44;5072858;28;20025;-43
2022/11/21 06:48:43;;;;;;;7.05;4.43;;;;;;;7.39;56.67;102165.72;5068242;28;20083;-43
2022/11/21 06:51:17;;;;;;;9.45;5.10;;;;;;;7.51;56.37;102164.47;5054139;28;20024;-43
2022/11/21 06:53:44;;;;;;;9.00;5.47;;;;;;;7.39;56.75;102163.88;5061259;28;20032;-44
2022/11/21 06:56:11;;;;;;;7.63;5.15;;;;;;;7.40;57.03;102164.72;5073929;28;20107;-46
2022/11/21 06:58:37;;;;;;;9.98;6.25;;;;;;;7.43;56.66;102163.56;5054700;28;20381;-43
2022/11/21 07:01:05;;;;;;;9.15;6.47;;;;;;;7.46;56.58;102161.44;5057821;28;20021;-43
2022/11/21 07:03:31;;;;;;;9.15;6.30;;;;;;;7.41;56.76;102148.56;5053978;28;20029;-43
2022/11/21 07:06:02;;;;;;;11.07;6.65;;;;;;;7.45;56.54;102154.44;5072920;28;20027;-43
2022/11/21 07:08:30;;;;;;;9.15;5.43;;;;;;;7.37;56.65;102152.53;5063536;28;20025;-44
2022/11/21 07:11:01;;;;;;;8.38;5.45;;;;;;;7.24;57.15;102143.25;5062552;28;20035;-43
2022/11/21 07:13:27;;;;;;;5.55;4.28;;;;;;;7.10;57.37;102148.09;5069689;28;20028;-44
2022/11/21 07:15:59;;;;;;;5.32;4.10;;;;;;;7.17;57.26;102150.19;5053667;28;20031;-43
2022/11/21 07:18:26;;;;;;;5.45;4.18;;;;;;;7.09;57.37;102143.75;5053376;28;20056;-44
2022/11/21 07:20:58;;;;;;;6.95;4.10;;;;;;;6.99;57.70;102148.31;5053530;28;20044;-44
2022/11/21 07:23:24;;;;;;;4.35;3.83;;;;;;;6.92;57.69;102152.56;5053467;28;20072;-43
2022/11/21 07:25:50;;;;;;;4.13;3.60;;;;;;;7.06;57.24;102153.91;5061644;28;20024;-43
2022/11/21 07:28:16;;;;;;;6.40;3.55;;;;;;;7.05;56.88;102154.88;5068101;28;20067;-44
2022/11/21 07:30:43;;;;;;;4.45;3.90;;;;;;;7.05;56.36;102153.06;5055778;28;20033;-43
2022/11/21 07:33:09;;;;;;;4.43;3.63;;;;;;;7.23;55.51;102146.91;5054120;28;20040;-45
2022/11/21 07:35:35;;;;;;;5.28;3.55;;;;;;;7.22;55.33;102146.06;5067130;28;20473;-44
2022/11/21 07:38:03;;;;;;;4.28;3.25;;;;;;;7.24;55.48;102153.91;5053098;28;20048;-46
2022/11/21 07:40:32;;;;;;;5.28;3.45;;;;;;;7.34;55.05;102152.00;5063822;28;20469;-44
2022/11/21 07:43:02;;;;;;;4.88;2.90;;;;;;;7.31;55.12;102153.13;5051295;28;20041;-42
2022/11/21 07:45:29;;;;;;;7.13;3.38;;;;;;;7.33;55.02;102151.16;5059148;28;20066;-43
2022/11/21 07:48:00;;;;;;;5.28;3.17;;;;;;;7.44;54.93;102147.44;5056233;28;20048;-43
2022/11/21 07:50:27;;;;;;;4.95;3.95;;;;;;;7.47;54.88;102147.13;5052858;28;20025;-44
2022/11/21 07:53:00;;;;;;;5.05;3.47;;;;;;;7.47;54.86;102140.94;5059295;28;20106;-44
2022/11/21 07:55:28;;;;;;;5.70;3.60;;;;;;;7.48;55.01;102134.63;5067559;28;20484;-44
2022/11/21 07:58:02;;;;;;;6.53;3.60;;;;;;;7.40;54.91;102135.41;5056525;28;20040;-43
2022/11/21 08:00:30;;;;;;;4.68;3.50;;;;;;;7.33;55.41;102134.34;5064645;28;20033;-43
2022/11/21 08:02:56;;;;;;;4.85;2.90;;;;;;;7.28;55.57;102137.47;5052430;28;20139;-43
2022/11/21 08:05:23;;;;;;;4.25;2.85;;;;;;;7.25;55.54;102128.94;5065880;28;20036;-44
2022/11/21 08:07:50;;;;;;;5.10;3.33;;;;;;;7.33;55.01;102129.03;5052909;28;20112;-45
2022/11/21 08:10:17;;;;;;;4.95;3.60;;;;;;;7.22;55.23;102129.22;5065931;28;20071;-43
2022/11/21 08:12:44;;;;;;;12.43;7.53;;;;;;;7.21;55.41;102127.56;5052273;28;20049;-45
2022/11/21 08:15:11;;;;;;;8.65;5.88;;;;;;;7.38;54.79;102134.69;5052506;28;20325;-43
2022/11/21 08:17:38;;;;;;;5.03;3.88;;;;;;;7.22;55.39;102132.75;5052356;28;20131;-45
2022/11/21 08:20:06;;;;;;;5.35;3.65;;;;;;;7.33;54.81;102137.03;5052445;28;20025;-44
2022/11/21 08:22:38;;;;;;;6.03;3.95;;;;;;;7.31;54.40;102133.66;5052092;28;20024;-44
2022/11/21 08:25:05;;;;;;;5.63;3.80;;;;;;;7.46;53.90;102131.28;5052166;28;20043;-44
2022/11/21 08:27:31;;;;;;;5.05;4.13;;;;;;;7.42;53.50;102128.09;5070595;28;20027;-45
2022/11/21 08:29:57;;;;;;;4.55;3.83;;;;;;;7.51;53.19;102127.19;5052358;28;20528;-44
2022/11/21 08:32:23;;;;;;;6.80;4.60;;;;;;;7.55;52.90;102117.91;5057592;28;20039;-46
2022/11/21 08:34:49;;;;;;;7.10;4.22;;;;;;;7.51;53.27;102129.00;5068715;28;20063;-44
2022/11/21 08:37:15;;;;;;;5.88;4.10;;;;;;;7.47;53.52;102127.63;5053713;28;20124;-44
2022/11/21 08:39:42;;;;;;;4.57;3.42;;;;;;;7.47;53.60;102127.63;5051899;28;20025;-45
2022/11/21 08:42:09;;;;;;;6.20;4.30;;;;;;;7.31;54.02;102128.31;5051412;28;20032;-45
2022/11/21 08:44:35;;;;;;;8.02;4.20;;;;;;;7.18;54.76;102120.72;5051701;28;20489;-43
2022/11/21 08:47:02;;;;;;;6.20;4.00;;;;;;;7.20;55.12;102117.91;5058651;28;20056;-43
2022/11/21 08:49:29;;;;;;;4.22;3.30;;;;;;;7.19;55.46;102116.25;5065176;28;20036;-43
2022/11/21 08:51:55;;;;;;;5.47;3.45;;;;;;;7.02;55.91;102110.75;5078147;22;20079;-43
2022/11/21 08:54:23;;;;;;;5.50;4.10;;;;;;;6.87;56.04;102113.09;5064966;28;20033;-43
2022/11/21 08:56:50;;;;;;;5.35;3.33;;;;;;;7.17;55.35;102113.75;5051416;28;20519;-45
2022/11/21 08:59:17;;;;;;;3.83;2.97;;;;;;;7.27;55.06;102113.63;5062946;28;20377;-43
2022/11/21 09:01:43;;;;;;;5.30;3.42;;;;;;;7.09;55.72;102106.50;5068620;28;20031;-43
2022/11/21 09:04:10;;;;;;;4.30;3.15;;;;;;;7.16;55.45;102109.38;5070317;28;20103;-43
2022/11/21 09:06:37;;;;;;;5.90;3.63;;;;;;;7.05;55.59;102115.78;5070725;28;20131;-45
2022/11/21 09:09:07;;;;;;;6.18;4.68;;;;;;;6.94;55.39;102108.03;5067440;28;20036;-46
2022/11/21 09:11:36;;;;;;;8.48;6.00;;;;;;;6.91;55.54;102113.63;5064410;28;20439;-43
2022/11/21 09:19:32;;;;;;;10.65;5.88;;;;;;;7.00;55.50;102107.41;5068005;28;20347;-44
2022/11/21 09:21:58;;;;;;;11.43;6.72;;;;;;;7.04;55.51;102108.78;5051616;28;20044;-44
2022/11/21 09:24:24;;;;;;;10.15;5.57;;;;;;;6.99;55.35;102113.72;5066201;28;20033;-43
2022/11/21 09:26:50;;;;;;;7.97;5.28;;;;;;;7.10;54.99;102108.16;5069420;28;20031;-44
2022/11/21 09:29:17;;;;;;;5.25;4.05;;;;;;;7.13;54.73;102105.22;5069901;28;20029;-46
2022/11/21 09:31:43;;;;;;;5.55;3.47;;;;;;;7.12;55.10;102098.22;5071103;28;20025;-43
2022/11/21 09:34:10;;;;;;;5.25;3.53;;;;;;;7.01;55.76;102102.94;5060877;28;20489;-43
2022/11/21 09:36:36;;;;;;;7.45;5.82;;;;;;;6.97;56.23;102110.38;5069644;28;20036;-44
2022/11/21 09:39:03;;;;;;;25.95;13.10;;;;;;;6.80;56.76;102111.19;5070848;28;20476;-43
2022/11/21 09:41:58;;;;;;;13.13;10.32;;;;;;;6.79;56.40;102120.16;5039274;28;20028;-44
2022/11/21 09:44:54;;;;;;;11.38;9.70;;;;;;;6.77;56.45;102111.47;5051556;28;20063;-44
2022/11/21 09:47:36;;;;;;;14.57;10.20;;;;;;;6.82;55.92;102117.19;5051230;28;20029;-43
2022/11/21 09:50:06;;;;;;;28.92;24.48;;;;;;;6.86;55.72;102110.59;5058132;28;20039;-43
2022/11/21 09:52:49;;;;;;;43.65;36.28;;;;;;;6.95;55.71;102109.69;5070575;28;20412;-43
2022/11/21 09:55:34;;;;;;;66.32;57.78;;;;;;;6.99;55.20;102108.38;5071111;28;20025;-43
2022/11/21 09:58:03;;;;;;;79.87;67.93;;;;;;;6.74;56.20;102106.47;5071266;28;20025;-43
2022/11/21 10:00:30;;;;;;;70.97;56.60;;;;;;;6.64;56.56;102111.00;5071221;28;20021;-43
2022/11/21 10:02:57;;;;;;;70.38;51.53;;;;;;;6.69;56.70;102119.38;5070853;28;20492;-43
2022/11/21 10:05:40;;;;;;;45.92;39.83;;;;;;;6.40;58.02;102124.88;5071116;28;20550;-43
2022/11/21 10:08:29;;;;;;;31.80;28.23;;;;;;;6.39;58.32;102126.69;5071236;28;20037;-43
2022/11/21 10:11:36;;;;;;;28.92;23.00;;;;;;;6.42;57.76;102125.56;5044828;28;20055;-43
2022/11/21 10:14:26;;;;;;;28.27;25.30;;;;;;;6.30;58.07;102125.75;5053825;28;20083;-45
2022/11/21 10:17:27;;;;;;;32.75;25.88;;;;;;;6.45;57.63;102122.59;5074697;28;20532;-43
2022/11/21 10:20:13;;;;;;;23.08;16.45;;;;;;;6.52;57.61;102121.84;5054950;28;20040;-43
2022/11/21 10:23:16;;;;;;;14.75;11.38;;;;;;;6.53;57.43;102115.53;5074642;28;20028;-43
2022/11/21 10:26:09;;;;;;;11.68;8.95;;;;;;;6.52;57.48;102113.88;5053053;28;20509;-43
2022/11/21 10:28:43;;;;;;;9.32;7.03;;;;;;;6.50;57.68;102120.34;5030684;28;20138;-44
2022/11/21 10:31:11;;;;;;;5.70;4.32;;;;;;;6.28;57.94;102116.25;5034362;28;20569;-45
2022/11/21 10:33:39;;;;;;;5.30;3.60;;;;;;;6.34;57.71;102116.50;5034462;28;20025;-44
2022/11/21 10:36:24;;;;;;;4.10;3.03;;;;;;;6.30;57.99;102112.44;5034439;28;20095;-43
2022/11/21 10:38:58;;;;;;;3.50;2.90;;;;;;;6.37;58.13;102111.84;5034649;28;20489;-44
2022/11/21 10:42:17;;;;;;;4.15;2.83;;;;;;;6.52;57.75;102110.38;5034128;28;20830;-45
2022/11/21 10:47:33;;;;;;;3.75;2.95;;;;;;;6.50;58.33;102107.03;5059816;28;20036;-43
2022/11/21 10:50:15;;;;;;;4.90;3.00;;;;;;;6.43;58.58;102098.78;5058928;28;20455;-43
2022/11/21 10:52:49;;;;;;;5.00;2.97;;;;;;;6.44;58.64;102104.94;5073676;28;20047;-43
2022/11/21 10:55:17;;;;;;;6.28;3.38;;;;;;;6.33;58.80;102101.53;5064252;28;20079;-43
2022/11/21 10:57:48;;;;;;;5.75;2.97;;;;;;;6.32;58.71;102101.66;5071502;28;20053;-44
2022/11/21 11:00:19;;;;;;;4.43;2.72;;;;;;;6.20;58.85;102098.34;5040564;28;20037;-45
2022/11/21 11:03:05;;;;;;;3.35;2.90;;;;;;;6.25;58.76;102095.25;5068298;28;20036;-44
2022/11/21 11:05:37;;;;;;;;;;;;;;;6.22;58.81;102095.53;5058923;28;20450;-43
2022/11/21 11:08:14;;;;;;;4.45;2.63;;;;;;;6.07;59.32;102089.88;5060099;28;19985;-45
2022/11/21 11:10:43;;;;;;;3.40;2.80;;;;;;;5.76;60.43;102092.72;5070100;28;20036;-43
2022/11/21 11:13:33;;;;;;;7.53;2.95;;;;;;;5.86;60.33;102097.19;5066599;28;20020;-43
2022/11/21 11:16:14;;;;;;;4.05;2.67;;;;;;;5.95;60.17;102093.72;5044329;28;20048;-42
2022/11/21 11:19:00;;;;;;;3.28;2.92;;;;;;;6.09;60.22;102088.75;5063319;28;20032;-43
2022/11/21 11:21:45;;;;;;;3.47;3.10;;;;;;;6.17;60.41;102082.72;5068041;28;20035;-42
2022/11/21 11:24:11;;;;;;;5.00;3.28;;;;;;;6.21;60.82;102091.22;5070151;28;20036;-45
2022/11/21 11:26:47;;;;;;;4.32;3.25;;;;;;;6.25;61.05;102093.44;5037559;28;20495;-43
2022/11/21 11:29:17;;;;;;;7.15;3.92;;;;;;;6.27;61.54;102094.13;5069572;28;20538;-43
2022/11/21 11:32:17;;;;;;;7.30;4.20;;;;;;;6.20;63.05;102086.88;5059227;28;20078;-44
2022/11/21 11:35:12;;;;;;;6.60;4.47;;;;;;;6.21;63.59;102088.53;5051831;28;20339;-43
2022/11/21 11:37:40;;;;;;;14.85;5.72;;;;;;;6.23;63.67;102092.75;5060557;22;20136;-43
2022/11/21 11:40:25;;;;;;;7.30;5.03;;;;;;;6.24;63.98;102094.41;5050653;28;20029;-43
2022/11/21 11:49:09;;;;;;;5.10;4.43;;;;;;;6.10;63.95;102092.22;5049023;28;20063;-45
2022/11/21 11:51:50;;;;;;;5.25;4.18;;;;;;;6.14;63.56;102092.78;5050596;28;20064;-44
2022/11/21 11:54:51;;;;;;;4.05;3.58;;;;;;;5.98;62.73;102093.41;5044134;28;20063;-46
2022/11/21 11:57:18;;;;;;;3.53;3.05;;;;;;;6.02;62.21;102106.25;5046715;28;20025;-45
2022/11/21 11:59:54;;;;;;;5.78;3.75;;;;;;;6.02;61.86;102103.59;5034677;28;20436;-45
2022/11/21 12:02:31;;;;;;;4.07;3.13;;;;;;;6.05;61.59;102086.50;5046309;28;20024;-43